Time;durP1;ratioP1;P1;durP2;ratioP2;P2;SDS_P1;SDS_P2;PMS_P1;PMS_P2;Temp;Humidity;BMP_temperature;BMP_pressure;BME280_temperature;BME280_humidity;BME280_pressure;Samples;Min_cycle;Max_cycle;Signal;HPM_P1;HPM_P2
2024/03/10 00:00:39;;;;;;;2.60;1.23;;;11.30;29.40;;;;;;5116288;28;20298;-65
2024/03/10 00:03:07;;;;;;;2.80;1.33;;;11.20;30.10;;;;;;5115769;28;20183;-65
2024/03/10 00:05:34;;;;;;;3.22;1.35;;;11.10;31.50;;;;;;5115707;28;20430;-65
2024/03/10 00:08:02;;;;;;;2.90;1.50;;;11.20;30.80;;;;;;5115691;28;20188;-65
2024/03/10 00:10:29;;;;;;;3.92;1.40;;;11.20;30.20;;;;;;5115932;28;20257;-66
2024/03/10 00:12:56;;;;;;;3.97;2.57;;;11.20;30.30;;;;;;5134621;27;20183;-66
2024/03/10 00:15:25;;;;;;;3.38;1.65;;;11.20;31.30;;;;;;5137014;27;20433;-66
2024/03/10 00:17:53;;;;;;;3.25;1.55;;;11.20;32.00;;;;;;5136088;27;20192;-66
2024/03/10 00:20:23;;;;;;;2.72;1.50;;;11.10;32.00;;;;;;5135325;27;20239;-66
2024/03/10 00:22:50;;;;;;;2.78;1.55;;;11.10;32.00;;;;;;5136488;27;20233;-66
2024/03/10 00:25:18;;;;;;;2.67;1.42;;;11.10;31.70;;;;;;5136298;27;20198;-66
2024/03/10 00:27:44;;;;;;;2.58;1.40;;;11.00;31.20;;;;;;5136242;27;20187;-66
2024/03/10 00:30:12;;;;;;;2.10;1.02;;;10.90;31.20;;;;;;5135741;27;20223;-66
2024/03/10 00:32:39;;;;;;;3.58;1.13;;;11.00;31.00;;;;;;5135663;27;20244;-66
2024/03/10 00:35:07;;;;;;;3.42;1.05;;;10.90;30.60;;;;;;5135315;27;20194;-66
2024/03/10 00:37:36;;;;;;;2.47;1.23;;;10.90;30.40;;;;;;5135667;27;20226;-66
2024/03/10 00:40:05;;;;;;;2.20;1.10;;;11.00;30.00;;;;;;5135494;27;20216;-67
2024/03/10 00:42:33;;;;;;;2.20;1.02;;;11.00;30.00;;;;;;5136326;27;20223;-66
2024/03/10 00:45:02;;;;;;;2.78;1.20;;;11.00;30.20;;;;;;5135963;27;20223;-67
2024/03/10 00:47:28;;;;;;;3.05;1.20;;;11.00;30.50;;;;;;5135339;27;20568;-66
2024/03/10 00:49:55;;;;;;;2.70;1.75;;;11.00;30.60;;;;;;5135821;27;20188;-66
2024/03/10 00:52:22;;;;;;;3.17;1.55;;;11.00;31.30;;;;;;5135599;27;20546;-66
2024/03/10 00:54:51;;;;;;;2.53;1.30;;;11.00;32.10;;;;;;5135515;27;20605;-66
2024/03/10 00:57:19;;;;;;;2.50;1.08;;;11.00;31.20;;;;;;5135233;27;20649;-66
2024/03/10 00:59:46;;;;;;;1.90;0.77;;;11.00;30.70;;;;;;5135450;27;20208;-67
2024/03/10 01:02:13;;;;;;;2.60;0.88;;;11.00;30.70;;;;;;5126664;27;20188;-66
2024/03/10 01:04:40;;;;;;;2.20;1.17;;;11.10;30.70;;;;;;5114860;28;20220;-66
2024/03/10 01:07:07;;;;;;;2.05;0.93;;;11.00;30.90;;;;;;5114321;27;20224;-66
2024/03/10 01:09:36;;;;;;;2.30;1.20;;;11.00;30.90;;;;;;5114649;28;20607;-66
2024/03/10 01:12:05;;;;;;;3.25;1.17;;;11.00;31.10;;;;;;5114644;28;20229;-66
2024/03/10 01:14:33;;;;;;;2.60;1.30;;;10.90;31.40;;;;;;5114694;27;20204;-66
2024/03/10 01:17:04;;;;;;;3.47;1.25;;;10.90;31.40;;;;;;5122485;27;20222;-67
2024/03/10 01:19:31;;;;;;;3.50;1.30;;;10.90;31.60;;;;;;5134810;27;20180;-66
2024/03/10 01:21:59;;;;;;;2.67;1.23;;;10.80;31.50;;;;;;5134801;27;20195;-67
2024/03/10 01:24:26;;;;;;;3.05;1.40;;;10.80;31.70;;;;;;5135077;27;20191;-66
2024/03/10 01:26:53;;;;;;;2.92;1.42;;;10.80;32.30;;;;;;5134727;27;20188;-67
2024/03/10 01:29:22;;;;;;;2.35;1.00;;;10.70;32.40;;;;;;5134949;27;20192;-67
2024/03/10 01:31:55;;;;;;;2.50;1.58;;;10.70;32.90;;;;;;5125608;27;20184;-66
2024/03/10 01:34:22;;;;;;;2.33;0.82;;;10.60;32.60;;;;;;5114078;28;20212;-66
2024/03/10 01:36:49;;;;;;;2.30;0.73;;;10.70;32.40;;;;;;5114287;28;20238;-66
2024/03/10 01:39:16;;;;;;;3.15;1.30;;;10.70;32.50;;;;;;5114294;28;20228;-66
2024/03/10 01:41:45;;;;;;;3.35;1.38;;;10.70;32.80;;;;;;5114288;28;20281;-66
2024/03/10 01:44:12;;;;;;;2.03;0.95;;;10.70;32.70;;;;;;5114199;28;20188;-66
2024/03/10 01:46:41;;;;;;;2.35;1.05;;;10.70;32.90;;;;;;5113875;28;20268;-66
2024/03/10 01:49:08;;;;;;;2.33;1.27;;;10.70;33.10;;;;;;5114184;28;20184;-68
2024/03/10 01:51:38;;;;;;;2.20;1.20;;;10.70;33.00;;;;;;5113702;28;20237;-66
2024/03/10 01:54:08;;;;;;;3.35;1.40;;;10.70;32.90;;;;;;5114053;28;20196;-66
2024/03/10 01:56:36;;;;;;;2.30;1.40;;;10.70;34.10;;;;;;5113954;28;20184;-66
2024/03/10 01:59:04;;;;;;;3.15;1.00;;;10.70;34.40;;;;;;5113688;28;20582;-66
2024/03/10 02:01:35;;;;;;;2.30;1.20;;;10.70;34.90;;;;;;5113528;28;20247;-66
2024/03/10 02:04:08;;;;;;;3.90;1.00;;;10.70;35.10;;;;;;5113814;28;20540;-66
2024/03/10 02:06:36;;;;;;;2.35;1.27;;;10.60;35.20;;;;;;5113425;28;20176;-66
2024/03/10 02:09:04;;;;;;;2.30;1.20;;;10.70;35.40;;;;;;5113567;28;20188;-66
2024/03/10 02:11:31;;;;;;;2.20;1.10;;;10.60;35.40;;;;;;5112838;28;20192;-66
2024/03/10 02:13:58;;;;;;;2.50;1.45;;;10.60;35.60;;;;;;5113368;28;20276;-66
2024/03/10 02:16:25;;;;;;;3.45;1.20;;;10.60;35.80;;;;;;5113790;28;20252;-66
2024/03/10 02:18:52;;;;;;;4.00;1.50;;;10.50;36.00;;;;;;5113773;28;20287;-64
2024/03/10 02:21:21;;;;;;;4.22;1.30;;;10.50;35.70;;;;;;5113188;28;20248;-64
2024/03/10 02:24:11;;;;;;;4.18;1.65;;;10.50;35.50;;;;;;5113224;28;20189;-65
2024/03/10 02:26:45;;;;;;;2.67;1.40;;;10.50;35.40;;;;;;5115580;28;20180;-65
2024/03/10 02:29:16;;;;;;;2.90;1.42;;;10.50;35.80;;;;;;5133904;28;20688;-64
2024/03/10 02:48:13;;;;;;;1.90;0.80;;;10.90;30.50;;;;;;5133282;28;20228;-66
2024/03/10 02:50:40;;;;;;;2.08;1.25;;;10.90;31.10;;;;;;5134240;27;20188;-66
2024/03/10 02:53:09;;;;;;;3.08;1.30;;;10.90;31.00;;;;;;5133982;28;20196;-66
2024/03/10 02:55:37;;;;;;;2.58;1.20;;;10.90;31.90;;;;;;5133712;28;20680;-66
2024/03/10 02:58:07;;;;;;;2.63;1.13;;;10.90;33.20;;;;;;5133510;28;20192;-67
2024/03/10 03:00:35;;;;;;;2.28;1.13;;;10.90;33.30;;;;;;5113314;28;20568;-66
2024/03/10 03:03:04;;;;;;;2.35;1.17;;;10.90;33.10;;;;;;5113647;28;20228;-66
2024/03/10 03:05:31;;;;;;;2.22;0.98;;;10.90;33.20;;;;;;5113003;28;20184;-66
2024/03/10 03:07:59;;;;;;;3.33;1.30;;;10.90;33.60;;;;;;5113320;28;20311;-64
2024/03/10 03:10:26;;;;;;;2.28;1.05;;;10.80;33.60;;;;;;5112991;28;20197;-64
2024/03/10 03:12:54;;;;;;;2.45;1.00;;;10.80;33.70;;;;;;5112554;28;20184;-65
2024/03/10 03:15:23;;;;;;;2.45;1.00;;;10.70;33.50;;;;;;5113030;28;20715;-67
2024/03/10 03:17:50;;;;;;;2.38;1.13;;;10.80;34.40;;;;;;5114116;28;20216;-66
2024/03/10 03:20:17;;;;;;;2.35;1.05;;;10.70;33.80;;;;;;5116274;28;20672;-66
2024/03/10 03:22:46;;;;;;;2.45;0.90;;;10.70;33.80;;;;;;5115084;28;20198;-66
2024/03/10 03:25:14;;;;;;;2.00;0.80;;;10.70;34.00;;;;;;5115368;28;20188;-65
2024/03/10 03:27:42;;;;;;;1.90;0.80;;;10.70;33.00;;;;;;5114678;28;20227;-66
2024/03/10 03:30:09;;;;;;;1.80;0.70;;;10.70;33.00;;;;;;5115077;28;20263;-66
2024/03/10 03:32:38;;;;;;;2.63;0.80;;;10.70;32.20;;;;;;5114333;28;20669;-65
2024/03/10 03:35:06;;;;;;;2.13;1.00;;;10.70;31.80;;;;;;5115132;28;20634;-66
2024/03/10 03:37:33;;;;;;;2.17;0.70;;;10.80;32.00;;;;;;5115227;28;20280;-66
2024/03/10 03:40:00;;;;;;;2.00;0.80;;;10.80;31.40;;;;;;5115119;28;20227;-66
2024/03/10 03:42:27;;;;;;;1.98;0.75;;;10.90;31.50;;;;;;5123290;27;20295;-66
2024/03/10 03:44:54;;;;;;;2.25;0.90;;;10.90;31.90;;;;;;5135302;27;20208;-67
2024/03/10 03:47:21;;;;;;;2.00;0.93;;;10.90;33.50;;;;;;5135218;27;20248;-65
2024/03/10 03:49:50;;;;;;;2.40;1.05;;;10.80;34.80;;;;;;5135520;27;20195;-66
2024/03/10 03:52:21;;;;;;;2.70;1.10;;;10.70;35.80;;;;;;5135412;27;20184;-65
2024/03/10 03:54:51;;;;;;;2.00;0.85;;;10.70;36.00;;;;;;5135386;27;20182;-65
2024/03/10 03:57:18;;;;;;;2.15;1.05;;;10.60;36.10;;;;;;5135326;27;20192;-67
2024/03/10 03:59:45;;;;;;;2.50;0.95;;;10.50;36.20;;;;;;5135117;27;20191;-66
2024/03/10 04:02:12;;;;;;;3.75;0.80;;;10.40;35.50;;;;;;5128664;27;20243;-65
2024/03/10 04:04:40;;;;;;;2.30;1.00;;;10.40;35.30;;;;;;5114623;28;20279;-66
2024/03/10 04:07:09;;;;;;;3.13;1.52;;;10.40;35.50;;;;;;5114331;28;20188;-65
2024/03/10 04:09:36;;;;;;;2.22;0.85;;;10.40;35.80;;;;;;5114606;28;20275;-65
2024/03/10 04:12:03;;;;;;;2.08;0.77;;;10.30;35.80;;;;;;5127911;27;20235;-66
2024/03/10 04:14:30;;;;;;;2.35;1.33;;;10.20;35.50;;;;;;5114469;28;20189;-66
2024/03/10 04:16:57;;;;;;;2.55;1.00;;;10.20;35.50;;;;;;5114330;28;20184;-65
2024/03/10 04:19:24;;;;;;;2.55;1.00;;;10.10;35.60;;;;;;5114079;28;20203;-65
2024/03/10 04:21:51;;;;;;;2.30;1.20;;;10.10;35.80;;;;;;5113356;28;20243;-66
2024/03/10 04:24:21;;;;;;;2.55;0.82;;;10.10;36.10;;;;;;5115083;28;20262;-65
2024/03/10 04:26:53;;;;;;;2.08;1.00;;;10.10;36.20;;;;;;5114109;28;20188;-65
2024/03/10 04:29:20;;;;;;;2.00;0.90;;;10.00;36.30;;;;;;5113881;28;20219;-65
2024/03/10 04:31:48;;;;;;;1.90;0.90;;;10.00;36.50;;;;;;5127480;27;20192;-66
2024/03/10 04:34:15;;;;;;;2.30;0.90;;;9.90;37.20;;;;;;5114301;28;20192;-66
2024/03/10 04:36:42;;;;;;;2.30;0.80;;;9.80;37.10;;;;;;5113755;28;20639;-66
2024/03/10 04:39:10;;;;;;;2.20;1.00;;;9.80;37.00;;;;;;5113929;28;20572;-66
2024/03/10 04:41:39;;;;;;;2.08;0.85;;;9.70;37.00;;;;;;5113571;28;20228;-66
2024/03/10 04:44:05;;;;;;;1.90;0.93;;;9.70;37.30;;;;;;5093598;28;20190;-67
2024/03/10 04:46:33;;;;;;;2.40;1.02;;;9.70;37.30;;;;;;5093617;28;20221;-67
2024/03/10 04:49:00;;;;;;;2.90;1.38;;;9.60;37.20;;;;;;5093010;28;20243;-67
2024/03/10 04:51:27;;;;;;;2.30;0.88;;;9.70;37.00;;;;;;5093385;28;20197;-65
2024/03/10 04:53:54;;;;;;;5.18;1.30;;;9.70;36.90;;;;;;5111805;27;20237;-67
2024/03/10 04:56:21;;;;;;;2.30;1.10;;;9.70;36.80;;;;;;5114790;28;20227;-64
2024/03/10 04:58:50;;;;;;;4.38;2.22;;;9.70;36.90;;;;;;5113666;28;20203;-65
2024/03/10 05:01:19;;;;;;;4.55;1.40;;;9.60;37.00;;;;;;5112843;28;20208;-65
2024/03/10 05:03:46;;;;;;;2.75;1.33;;;9.60;37.30;;;;;;5129956;27;20650;-64
2024/03/10 05:06:13;;;;;;;2.75;1.10;;;9.60;37.50;;;;;;5133971;27;20196;-65
2024/03/10 05:08:41;;;;;;;2.67;1.00;;;9.60;37.50;;;;;;5133724;27;20195;-65
2024/03/10 05:11:09;;;;;;;2.25;1.10;;;9.60;37.70;;;;;;5134055;27;20399;-65
2024/03/10 05:13:36;;;;;;;3.25;1.05;;;9.60;38.50;;;;;;5132868;27;20219;-66
2024/03/10 05:16:07;;;;;;;2.47;0.88;;;9.60;38.90;;;;;;5133596;27;20187;-67
2024/03/10 05:18:34;;;;;;;1.90;0.85;;;9.60;39.20;;;;;;5133744;27;20191;-66
2024/03/10 05:21:01;;;;;;;3.65;0.90;;;9.50;39.20;;;;;;5133467;27;20214;-65
2024/03/10 05:23:28;;;;;;;3.40;1.10;;;9.50;39.30;;;;;;5119296;27;20523;-66
2024/03/10 05:25:55;;;;;;;2.22;1.08;;;9.50;39.50;;;;;;5113014;28;20203;-67
2024/03/10 05:28:22;;;;;;;2.53;1.10;;;9.50;39.40;;;;;;5114330;28;20188;-66
2024/03/10 05:30:50;;;;;;;5.18;1.20;;;9.40;39.40;;;;;;5111787;28;20189;-66
2024/03/10 05:33:18;;;;;;;2.25;1.40;;;9.50;39.50;;;;;;5124486;27;20188;-66
2024/03/10 05:35:45;;;;;;;2.47;0.98;;;9.40;39.90;;;;;;5133245;27;20598;-66
2024/03/10 05:38:12;;;;;;;3.70;1.10;;;9.30;40.10;;;;;;5133484;27;20192;-67
2024/03/10 05:40:39;;;;;;;2.42;1.15;;;9.30;40.20;;;;;;5132447;27;20388;-65
2024/03/10 05:43:06;;;;;;;2.58;1.33;;;9.30;40.30;;;;;;5122631;27;20223;-65
2024/03/10 05:45:34;;;;;;;3.50;1.50;;;9.20;40.60;;;;;;5113270;28;20192;-68
2024/03/10 05:48:01;;;;;;;3.90;2.00;;;9.10;40.50;;;;;;5112578;28;20203;-67
2024/03/10 05:50:30;;;;;;;3.53;2.20;;;9.10;41.00;;;;;;5112391;28;20193;-66
2024/03/10 05:52:57;;;;;;;2.65;1.25;;;9.10;40.90;;;;;;5112334;28;20191;-64
2024/03/10 05:55:25;;;;;;;4.38;1.60;;;9.10;40.90;;;;;;5123473;27;20208;-65
2024/03/10 05:57:52;;;;;;;2.70;1.30;;;9.10;41.30;;;;;;5133603;27;20195;-65
2024/03/10 06:00:19;;;;;;;2.92;1.70;;;9.00;41.70;;;;;;5133849;27;20259;-66
2024/03/10 06:02:53;;;;;;;3.22;1.50;;;9.00;41.90;;;;;;5125900;27;20244;-67
2024/03/10 06:05:20;;;;;;;5.18;1.40;;;8.90;41.70;;;;;;5112323;28;20268;-66
2024/03/10 06:07:48;;;;;;;3.00;2.10;;;8.90;41.90;;;;;;5111774;28;20697;-64
2024/03/10 06:10:16;;;;;;;3.67;2.22;;;8.90;42.00;;;;;;5112001;28;20278;-64
2024/03/10 06:12:43;;;;;;;2.90;2.00;;;8.90;42.20;;;;;;5111614;28;20555;-65
2024/03/10 06:15:11;;;;;;;2.30;1.10;;;8.90;42.40;;;;;;5112215;28;20188;-65
2024/03/10 06:17:40;;;;;;;3.10;1.50;;;8.90;42.60;;;;;;5112302;28;20271;-65
2024/03/10 06:25:39;;;;;;;2.20;1.05;;;8.90;43.10;;;;;;5132598;28;20175;-65
2024/03/10 06:28:06;;;;;;;2.88;1.17;;;8.90;43.10;;;;;;5132451;27;20242;-65
2024/03/10 06:30:35;;;;;;;6.55;1.20;;;9.00;44.00;;;;;;5132516;28;20192;-65
2024/03/10 06:33:02;;;;;;;2.95;1.20;;;9.10;43.70;;;;;;5099662;28;20184;-66
2024/03/10 06:35:29;;;;;;;2.85;1.60;;;9.00;43.60;;;;;;5111722;28;20238;-65
2024/03/10 06:37:57;;;;;;;3.33;1.63;;;9.00;43.30;;;;;;5111963;28;20198;-65
2024/03/10 06:40:25;;;;;;;3.97;2.05;;;9.00;43.40;;;;;;5111612;28;20307;-65
2024/03/10 06:42:52;;;;;;;4.47;2.50;;;9.10;43.30;;;;;;5111244;28;20201;-65
2024/03/10 06:45:19;;;;;;;4.22;2.33;;;9.20;43.80;;;;;;5112022;28;20355;-65
2024/03/10 06:47:46;;;;;;;3.50;2.10;;;9.40;44.20;;;;;;5111627;28;20639;-65
2024/03/10 06:50:15;;;;;;;5.65;2.22;;;9.50;43.70;;;;;;5111590;28;20623;-65
2024/03/10 06:52:45;;;;;;;3.80;2.22;;;9.50;42.70;;;;;;5114047;27;20189;-65
2024/03/10 06:55:14;;;;;;;2.80;1.73;;;9.60;42.40;;;;;;5115421;28;20199;-65
2024/03/10 06:57:41;;;;;;;3.35;1.92;;;9.70;42.40;;;;;;5115722;28;20610;-65
2024/03/10 07:00:12;;;;;;;3.38;2.10;;;9.80;42.70;;;;;;5115054;28;20642;-65
2024/03/10 07:02:39;;;;;;;3.72;2.40;;;9.90;43.10;;;;;;5116562;27;20235;-65
2024/03/10 07:05:06;;;;;;;4.90;1.60;;;10.00;42.60;;;;;;5115547;28;20619;-65
2024/03/10 07:07:38;;;;;;;3.35;2.00;;;10.10;42.50;;;;;;5114892;28;20196;-65
2024/03/10 07:10:09;;;;;;;4.05;2.25;;;10.20;43.10;;;;;;5115150;28;20207;-65
2024/03/10 07:12:38;;;;;;;2.88;1.50;;;10.30;43.30;;;;;;5114904;28;20189;-65
2024/03/10 07:15:09;;;;;;;4.05;1.90;;;10.40;43.80;;;;;;5115225;28;20634;-65
2024/03/10 07:17:38;;;;;;;2.83;1.10;;;10.70;43.20;;;;;;5115307;27;20178;-65
2024/03/10 07:20:06;;;;;;;3.00;1.38;;;11.10;43.60;;;;;;5114930;28;20242;-65
2024/03/10 07:22:33;;;;;;;4.33;1.77;;;11.70;43.30;;;;;;5114512;28;20712;-65
2024/03/10 07:25:01;;;;;;;2.33;1.10;;;12.20;41.90;;;;;;5114995;28;20433;-66
2024/03/10 07:27:28;;;;;;;5.40;1.70;;;12.70;39.30;;;;;;5114796;28;20513;-65
2024/03/10 07:29:57;;;;;;;3.20;1.57;;;13.30;38.80;;;;;;5114703;27;20465;-65
2024/03/10 07:32:25;;;;;;;4.20;1.90;;;13.70;38.90;;;;;;5114183;27;20465;-65
2024/03/10 07:34:52;;;;;;;4.83;2.93;;;14.40;37.70;;;;;;5116183;28;20470;-66
2024/03/10 07:37:21;;;;;;;3.20;2.10;;;15.00;36.10;;;;;;5115219;28;20437;-65
2024/03/10 07:39:48;;;;;;;3.10;1.80;;;15.50;35.00;;;;;;5115138;28;20438;-65
2024/03/10 07:42:15;;;;;;;2.70;1.40;;;15.60;32.90;;;;;;5114334;28;20473;-65
2024/03/10 07:44:47;;;;;;;11.23;5.37;;;15.70;33.80;;;;;;5133688;27;20464;-66
2024/03/10 07:47:15;;;;;;;9.47;6.27;;;15.80;33.70;;;;;;5124082;27;20411;-66
2024/03/10 07:49:42;;;;;;;4.80;2.80;;;15.90;33.70;;;;;;5115245;28;20949;-66
2024/03/10 07:52:10;;;;;;;3.33;2.33;;;16.00;34.30;;;;;;5115626;28;20436;-66
2024/03/10 07:54:39;;;;;;;6.33;1.70;;;15.90;34.30;;;;;;5115738;28;20479;-65
2024/03/10 07:57:06;;;;;;;3.70;1.70;;;15.90;34.60;;;;;;5113725;27;20435;-66
2024/03/10 07:59:46;;;;;;;3.43;1.53;;;15.80;34.90;;;;;;5114733;28;20415;-66
2024/03/10 08:02:15;;;;;;;3.10;1.60;;;16.00;36.80;;;;;;5114112;28;20480;-66
2024/03/10 08:04:43;;;;;;;2.30;1.23;;;16.20;35.50;;;;;;5097733;27;20431;-65
2024/03/10 08:07:14;;;;;;;2.50;1.20;;;16.40;34.70;;;;;;5115261;28;20422;-66
2024/03/10 08:09:43;;;;;;;7.93;5.37;;;16.50;34.70;;;;;;5117010;27;20447;-66
2024/03/10 08:12:15;;;;;;;5.70;3.20;;;16.60;35.30;;;;;;5135784;27;20461;-66
2024/03/10 08:14:45;;;;;;;3.60;1.40;;;16.60;34.30;;;;;;5135661;27;20423;-66
2024/03/10 08:17:12;;;;;;;3.37;1.60;;;16.60;32.20;;;;;;5135468;27;20435;-66
2024/03/10 08:19:42;;;;;;;4.00;2.23;;;16.50;32.40;;;;;;5133396;27;20494;-66
2024/03/10 08:22:11;;;;;;;2.70;1.53;;;16.40;32.30;;;;;;5114846;28;20493;-66
2024/03/10 08:24:45;;;;;;;2.90;1.70;;;16.30;32.40;;;;;;5114569;28;20430;-66
2024/03/10 08:27:12;;;;;;;3.90;2.20;;;16.30;32.50;;;;;;5114285;27;20477;-65
2024/03/10 08:29:56;;;;;;;4.40;2.63;;;16.40;32.90;;;;;;5114945;27;20517;-66
2024/03/10 08:32:24;;;;;;;4.93;2.97;;;16.90;32.10;;;;;;5114850;28;20443;-66
2024/03/10 08:34:54;;;;;;;3.87;2.27;;;17.20;32.10;;;;;;5114527;28;20432;-66
2024/03/10 08:37:24;;;;;;;4.63;2.50;;;17.30;30.80;;;;;;5113966;28;20528;-66
2024/03/10 08:40:00;;;;;;;3.17;2.10;;;17.10;30.50;;;;;;5127389;27;20424;-66
2024/03/10 08:43:09;;;;;;;3.00;1.80;;;16.90;30.50;;;;;;5114485;28;20523;-66
2024/03/10 08:59:11;;;;;;;4.97;1.70;;;16.60;31.20;;;;;;5136135;27;386773;-65
2024/03/10 09:01:39;;;;;;;4.30;1.57;;;15.50;33.00;;;;;;5145171;27;20429;-66
2024/03/10 09:04:08;;;;;;;4.77;1.80;;;15.40;33.40;;;;;;5143229;27;20459;-65
2024/03/10 09:06:35;;;;;;;5.20;1.57;;;15.30;33.60;;;;;;5147997;27;20437;-65
2024/03/10 09:09:08;;;;;;;3.23;1.63;;;15.20;34.20;;;;;;5147819;27;20515;-66
2024/03/10 09:11:35;;;;;;;2.90;1.10;;;15.10;35.00;;;;;;5148511;27;20879;-65
2024/03/10 09:14:03;;;;;;;4.60;2.03;;;15.10;35.70;;;;;;5152067;27;20584;-65
2024/03/10 09:16:34;;;;;;;4.10;1.93;;;15.00;35.20;;;;;;5148983;27;20449;-66
2024/03/10 09:19:05;;;;;;;5.77;1.87;;;14.90;34.80;;;;;;5149532;27;20428;-66
2024/03/10 09:21:33;;;;;;;3.83;1.33;;;14.80;34.90;;;;;;5149035;27;20429;-66
2024/03/10 09:24:00;;;;;;;3.63;1.63;;;14.80;35.10;;;;;;5148863;27;20432;-66
2024/03/10 09:26:28;;;;;;;3.20;1.73;;;14.70;35.60;;;;;;5149087;27;20437;-67
2024/03/10 09:28:57;;;;;;;6.83;3.70;;;14.70;36.60;;;;;;5148639;27;20829;-66
2024/03/10 09:31:24;;;;;;;11.63;6.87;;;14.70;36.40;;;;;;5149542;27;20428;-66
2024/03/10 09:33:53;;;;;;;3.20;2.07;;;14.70;36.60;;;;;;5149295;27;20818;-66
2024/03/10 09:36:20;;;;;;;3.43;2.23;;;14.70;37.30;;;;;;5148382;27;20540;-66
2024/03/10 09:38:47;;;;;;;6.70;2.50;;;14.60;38.30;;;;;;5149157;27;20948;-66
2024/03/10 09:41:15;;;;;;;3.77;1.70;;;14.60;38.90;;;;;;5151363;27;20500;-66
2024/03/10 09:43:42;;;;;;;2.90;1.57;;;14.70;39.60;;;;;;5149157;27;20481;-66
2024/03/10 09:46:13;;;;;;;2.87;1.73;;;14.70;38.90;;;;;;5148925;27;20424;-66
2024/03/10 09:48:42;;;;;;;3.23;1.43;;;14.70;38.80;;;;;;5148742;27;20487;-67
2024/03/10 09:51:13;;;;;;;3.60;2.20;;;14.70;38.70;;;;;;5146473;27;20435;-66
2024/03/10 09:53:40;;;;;;;4.83;3.50;;;14.70;38.60;;;;;;5144870;27;20441;-66
2024/03/10 09:56:08;;;;;;;7.63;6.20;;;14.80;38.70;;;;;;5148806;27;20485;-66
2024/03/10 09:58:43;;;;;;;6.20;3.50;;;14.90;38.70;;;;;;5143725;27;20547;-66
2024/03/10 10:01:15;;;;;;;8.93;5.17;;;14.90;38.60;;;;;;5134690;27;20427;-66
2024/03/10 10:03:44;;;;;;;7.10;3.77;;;15.00;38.90;;;;;;5134151;27;20429;-66
2024/03/10 10:06:17;;;;;;;4.10;2.40;;;15.00;38.70;;;;;;5132739;27;20983;-66
2024/03/10 10:08:45;;;;;;;4.40;3.10;;;15.10;38.90;;;;;;5130495;27;20465;-66
2024/03/10 10:11:13;;;;;;;4.03;2.47;;;15.10;38.70;;;;;;5134800;27;21163;-66
2024/03/10 10:13:42;;;;;;;3.10;1.83;;;15.20;38.40;;;;;;5131281;27;21083;-67
2024/03/10 10:16:10;;;;;;;3.47;1.80;;;15.30;38.60;;;;;;5134618;27;20472;-66
2024/03/10 10:18:39;;;;;;;6.40;3.90;;;15.50;39.10;;;;;;5134843;27;20435;-65
2024/03/10 10:21:07;;;;;;;4.43;2.10;;;15.70;39.00;;;;;;5133834;27;20425;-68
2024/03/10 10:23:36;;;;;;;5.63;2.77;;;15.90;38.70;;;;;;5133934;27;20450;-65
2024/03/10 10:26:12;;;;;;;4.17;2.73;;;16.00;38.00;;;;;;5134438;27;20440;-66
2024/03/10 10:28:41;;;;;;;3.90;1.67;;;16.10;38.10;;;;;;5134678;27;20473;-66
2024/03/10 10:31:15;;;;;;;3.63;1.70;;;16.20;37.50;;;;;;5133681;27;20438;-66
2024/03/10 10:33:45;;;;;;;4.10;2.10;;;16.30;37.60;;;;;;5133593;27;20436;-66
2024/03/10 10:36:16;;;;;;;3.03;1.57;;;16.60;37.50;;;;;;5134444;27;20508;-66
2024/03/10 10:38:47;;;;;;;4.13;2.20;;;16.80;37.00;;;;;;5130560;27;20980;-66
2024/03/10 10:41:16;;;;;;;4.33;3.03;;;17.00;37.30;;;;;;5133759;27;20455;-66
2024/03/10 10:43:46;;;;;;;3.70;2.30;;;17.60;38.90;;;;;;5133349;27;20478;-68
2024/03/10 10:46:16;;;;;;;2.73;1.80;;;18.10;37.20;;;;;;5130192;27;20440;-67
2024/03/10 10:48:45;;;;;;;2.50;1.30;;;18.30;35.70;;;;;;5133707;27;20499;-67
2024/03/10 10:51:14;;;;;;;2.63;0.90;;;18.50;36.30;;;;;;5134262;27;20434;-67
2024/03/10 10:53:43;;;;;;;3.97;1.20;;;18.90;37.00;;;;;;5133837;27;20430;-67
2024/03/10 10:56:12;;;;;;;2.00;0.60;;;19.20;33.80;;;;;;5137271;27;20438;-67
2024/03/10 10:58:40;;;;;;;1.80;0.60;;;19.40;32.20;;;;;;5135387;27;20493;-66
2024/03/10 11:01:09;;;;;;;2.07;0.70;;;19.50;32.00;;;;;;5135993;27;20428;-67
2024/03/10 11:04:27;;;;;;;1.70;0.63;;;20.20;31.80;;;;;;5129525;27;20524;-68
2024/03/10 11:07:06;;;;;;;2.90;0.50;;;21.20;30.20;;;;;;5070661;27;20835;-66
2024/03/10 11:09:41;;;;;;;2.13;0.60;;;22.00;27.20;;;;;;5132484;27;20478;-65
2024/03/10 11:12:26;;;;;;;2.33;0.70;;;21.90;27.70;;;;;;5132826;27;20417;-67
2024/03/10 11:15:10;;;;;;;1.80;0.50;;;21.70;27.00;;;;;;5133176;27;20926;-67
2024/03/10 11:17:46;;;;;;;1.70;0.50;;;21.40;26.10;;;;;;5130615;27;20903;-67
2024/03/10 11:20:18;;;;;;;1.70;0.50;;;21.10;26.60;;;;;;5131824;27;20432;-69
2024/03/10 11:22:54;;;;;;;1.83;0.53;;;20.80;27.70;;;;;;5132222;27;20434;-66
2024/03/10 11:25:23;;;;;;;1.80;0.57;;;20.50;26.60;;;;;;5131703;27;20441;-66
2024/03/10 11:27:59;;;;;;;1.70;0.50;;;20.30;26.90;;;;;;5132398;27;20477;-67
2024/03/10 11:30:49;;;;;;;1.70;0.50;;;20.20;27.10;;;;;;5132517;27;20482;-65
2024/03/10 11:33:23;;;;;;;1.70;0.50;;;20.60;29.00;;;;;;5131789;27;20429;-67
2024/03/10 11:35:52;;;;;;;1.80;0.50;;;21.50;29.00;;;;;;5131249;27;20474;-67
2024/03/10 11:38:21;;;;;;;2.83;0.50;;;22.40;28.50;;;;;;5134328;27;20430;-67
2024/03/10 11:40:58;;;;;;;1.70;0.50;;;23.40;27.90;;;;;;5131622;27;20426;-67
2024/03/10 11:43:28;;;;;;;2.37;0.60;;;24.50;26.10;;;;;;5132791;27;20425;-67
2024/03/10 11:46:31;;;;;;;1.80;0.60;;;25.50;26.50;;;;;;5129656;27;20503;-68
2024/03/10 11:48:59;;;;;;;1.70;0.50;;;26.50;25.30;;;;;;5133376;27;20500;-67
2024/03/10 11:51:27;;;;;;;2.03;0.53;;;27.00;23.50;;;;;;5131622;27;20473;-67
2024/03/10 11:53:54;;;;;;;1.90;0.60;;;27.00;21.90;;;;;;5130550;27;20920;-67
2024/03/10 11:56:22;;;;;;;1.70;0.50;;;26.80;20.40;;;;;;5129912;27;20444;-66
2024/03/10 11:58:52;;;;;;;2.37;0.50;;;26.40;20.80;;;;;;5129222;27;20463;-66
2024/03/10 12:01:21;;;;;;;1.80;0.50;;;26.00;20.90;;;;;;5130817;27;20449;-67
2024/03/10 12:03:49;;;;;;;1.80;0.50;;;25.60;21.90;;;;;;5131468;27;20946;-66
2024/03/10 12:06:17;;;;;;;1.90;0.50;;;25.50;22.30;;;;;;5131241;27;20528;-67
2024/03/10 12:08:44;;;;;;;2.80;0.50;;;25.50;22.70;;;;;;5129650;27;20546;-66
2024/03/10 12:11:12;;;;;;;1.83;0.50;;;25.20;21.00;;;;;;5129175;27;20948;-66
2024/03/10 12:13:41;;;;;;;2.17;0.70;;;24.70;21.50;;;;;;5133015;27;20520;-67
2024/03/10 12:16:11;;;;;;;1.63;0.50;;;24.30;21.30;;;;;;5131136;27;20908;-67
2024/03/10 12:18:40;;;;;;;1.70;0.50;;;24.00;22.60;;;;;;5132169;27;20441;-66
2024/03/10 12:21:12;;;;;;;1.70;0.50;;;23.70;21.90;;;;;;5131994;27;20821;-66
2024/03/10 12:23:39;;;;;;;1.70;0.50;;;23.30;22.40;;;;;;5130757;27;20919;-66
2024/03/10 12:26:09;;;;;;;1.70;0.50;;;23.00;22.70;;;;;;5131567;27;20498;-66
2024/03/10 12:28:39;;;;;;;1.80;0.50;;;22.70;22.70;;;;;;5131869;27;20918;-67
2024/03/10 12:31:12;;;;;;;1.70;0.47;;;22.40;22.50;;;;;;5126917;27;20838;-67
2024/03/10 12:33:40;;;;;;;2.73;0.60;;;22.10;23.00;;;;;;5130395;27;20521;-66
2024/03/10 12:36:09;;;;;;;1.80;0.50;;;21.80;23.70;;;;;;5130934;27;20434;-66
2024/03/10 12:38:40;;;;;;;1.70;0.50;;;21.70;24.30;;;;;;5127366;27;20429;-67
2024/03/10 12:41:07;;;;;;;1.80;0.70;;;21.70;25.10;;;;;;5128871;27;20961;-66
2024/03/10 12:43:36;;;;;;;4.67;0.67;;;21.70;26.10;;;;;;5130667;27;20430;-66
2024/03/10 12:46:04;;;;;;;1.80;0.50;;;21.90;25.40;;;;;;5131357;28;20945;-66
2024/03/10 12:48:33;;;;;;;3.67;0.60;;;22.00;24.80;;;;;;5131366;28;20584;-66
2024/03/10 12:50:59;;;;;;;1.70;0.50;;;22.00;24.30;;;;;;5130542;28;20425;-66
2024/03/10 12:53:28;;;;;;;1.70;0.50;;;21.90;24.30;;;;;;5133127;27;20488;-67
2024/03/10 12:55:56;;;;;;;1.80;0.60;;;21.70;24.80;;;;;;5131683;28;20437;-67
2024/03/10 12:58:29;;;;;;;1.80;0.50;;;21.60;25.70;;;;;;5132311;28;20562;-66
2024/03/10 13:00:56;;;;;;;1.70;0.50;;;21.50;25.00;;;;;;5130618;28;20469;-66
2024/03/10 13:03:23;;;;;;;1.70;0.50;;;21.40;24.60;;;;;;5131249;27;20476;-66
2024/03/10 13:05:55;;;;;;;1.70;0.50;;;21.20;25.00;;;;;;5131510;28;20429;-67
2024/03/10 13:08:23;;;;;;;2.07;0.60;;;21.10;24.90;;;;;;5130918;27;20467;-67
2024/03/10 13:10:50;;;;;;;1.70;0.50;;;21.00;25.20;;;;;;5129960;27;20491;-66
2024/03/10 13:13:19;;;;;;;2.27;0.60;;;20.80;25.70;;;;;;5133002;27;20529;-66
2024/03/10 13:15:46;;;;;;;2.50;0.60;;;20.70;25.80;;;;;;5130923;28;20482;-67
2024/03/10 13:18:15;;;;;;;2.00;0.57;;;20.60;26.20;;;;;;5130505;28;20916;-66
2024/03/10 13:20:43;;;;;;;1.70;0.50;;;20.60;26.50;;;;;;5130289;28;20441;-67
2024/03/10 13:23:12;;;;;;;1.83;0.50;;;20.60;26.80;;;;;;5130952;28;20453;-66
2024/03/10 13:25:39;;;;;;;1.63;0.50;;;20.60;27.10;;;;;;5133334;27;20460;-65
2024/03/10 13:28:06;;;;;;;1.70;0.50;;;20.60;26.70;;;;;;5131165;28;20573;-66
2024/03/10 13:30:34;;;;;;;1.80;0.60;;;20.60;26.80;;;;;;5130717;28;20469;-66
2024/03/10 13:33:02;;;;;;;1.97;0.70;;;20.50;26.20;;;;;;5130803;27;20465;-66